Overview Statistics Trail Chart Weather Telemetry Raw packets
 

This is the latest recevied weather packets stored in our database for station/object F8KHU-13. If no packets are shown the sender has not sent any weather packets the latest 10 day(s).

<< 42 43 44 45 46 47 48 >>
Time Temp. Humidity Pressure Rain* Wind** Luminosity Snow
1788153064 16.11° C 30% 1010.7 hPa 0 mm - 0 W/m² -
1788153056 15.56° C 31% 1010.7 hPa 0 mm - 0 W/m² -
1788153026 16.11° C 30% 1010.8 hPa 0 mm - 0 W/m² -
1788152163 15.56° C 31% 1011 hPa 0 mm - 0 W/m² -
1788152144 16.11° C 30% 1010.8 hPa 0 mm - 0 W/m² -
1788152124 16.11° C 30% 1010.8 hPa 0 mm - 0 W/m² -
1788126965 18.33° C 28% 1010.3 hPa 0 mm - 0 W/m² -
1788126945 18.33° C 28% 1010.3 hPa 0 mm - 0 W/m² -
1788126066 18.33° C 29% 1010.3 hPa 0 mm - 0 W/m² -
1788126046 18.33° C 29% 1010.3 hPa 0 mm - 0 W/m² -
1788126026 18.33° C 29% 1010.3 hPa 0 mm - 0 W/m² -
1788125166 17.78° C 30% 1010.4 hPa 0 mm - 0 W/m² -
1788125146 18.33° C 29% 1010.5 hPa 0 mm - 0 W/m² -
1788125126 18.33° C 29% 1010.5 hPa 0 mm - 0 W/m² -
1788124266 17.78° C 29% 1010.6 hPa 0 mm - 0 W/m² -
1788124246 18.33° C 28% 1010.5 hPa 0 mm - 0 W/m² -
1788123366 18.33° C 28% 1010.7 hPa 0 mm - 0 W/m² -
1788123346 18.33° C 28% 1010.7 hPa 0 mm - 0 W/m² -
1788122461 18.33° C 28% 1010.7 hPa 0 mm - 0 W/m² -
1788122447 18.33° C 28% 1010.7 hPa 0 mm - 0 W/m² -
1788122421 18.33° C 28% 1010.7 hPa 0 mm - 0 W/m² -
1788121561 18.89° C 28% 1010.8 hPa 0 mm - 0 W/m² -
1788121541 18.89° C 28% 1010.9 hPa 0 mm - 0 W/m² -
1788120641 18.89° C 28% 1011 hPa 0 mm - 0 W/m² -
1788120621 18.89° C 28% 1010.9 hPa 0 mm - 0 W/m² -

* Rain latest hour (hover to see other rain measurements)
** Current wind speed in m/s (hover to see current wind gust speed)